Time,TemperatureF,DewpointF,PressureIn,WindDirection,WindDirectionDegrees,WindSpeedMPH,WindSpeedGustMPH,Humidity,HourlyPrecipIn,Conditions,Clouds,dailyrainin,SolarRadiationWatts/m^2,SoftwareType,DateUTC
2013-09-28 00:04:00,62.0,54.0,30.01,SSE,162,0.0,1.2,75,0.00,CLR,,0.00,0.0,WeatherDisplay:10.37,2013-09-28 05:04:00,
2013-09-28 00:09:00,61.8,53.8,30.01,SSE,162,0.3,2.3,75,0.00,CLR,,0.00,0.0,WeatherDisplay:10.37,2013-09-28 05:09:00,
2013-09-28 00:14:00,61.8,53.8,30.01,SSE,161,0.0,0.0,75,0.00,CLR,,0.00,0.0,WeatherDisplay:10.37,2013-09-28 05:14:00,
2013-09-28 00:19:00,61.6,53.6,30.01,South,179,0.0,0.0,75,0.00,CLR,,0.00,0.0,WeatherDisplay:10.37,2013-09-28 05:19:00,
2013-09-28 00:24:00,61.6,53.6,30.01,SSE,167,0.0,0.0,75,0.00,CLR,,0.00,0.0,WeatherDisplay:10.37,2013-09-28 05:24:00,
2013-09-28 00:29:00,61.5,53.5,30.00,South,180,0.0,0.0,75,0.00,CLR,,0.00,0.0,WeatherDisplay:10.37,2013-09-28 05:29:00,
2013-09-28 00:34:00,61.5,53.5,30.00,South,180,0.0,0.0,75,0.00,CLR,,0.00,0.0,WeatherDisplay:10.37,2013-09-28 05:34:00,
2013-09-28 00:39:00,61.3,53.7,30.00,South,180,0.0,0.0,76,0.00,CLR,,0.00,0.0,WeatherDisplay:10.37,2013-09-28 05:39:00,
2013-09-28 00:44:00,61.2,53.6,30.00,South,180,0.0,0.0,76,0.00,CLR,,0.00,0.0,WeatherDisplay:10.37,2013-09-28 05:44:00,
2013-09-28 00:49:00,61.0,53.4,30.00,South,181,0.0,0.0,76,0.00,CLR,,0.00,0.0,WeatherDisplay:10.37,2013-09-28 05:49:00,
2013-09-28 00:54:00,60.9,53.3,30.00,South,180,0.0,0.0,76,0.00,CLR,,0.00,0.0,WeatherDisplay:10.37,2013-09-28 05:54:00,
2013-09-28 00:59:00,60.7,53.1,30.00,South,180,0.0,0.0,76,0.00,CLR,,0.00,0.0,WeatherDisplay:10.37,2013-09-28 05:59:00,
2013-09-28 01:04:00,60.5,52.9,30.00,South,180,0.0,0.0,76,0.00,CLR,,0.00,0.0,WeatherDisplay:10.37,2013-09-28 06:04:00,
2013-09-28 01:09:00,60.2,52.6,30.00,South,180,0.0,0.0,76,0.00,CLR,,0.00,0.0,WeatherDisplay:10.37,2013-09-28 06:09:00,
2013-09-28 01:14:00,59.9,52.7,30.00,South,180,0.0,0.0,77,0.00,CLR,,0.00,0.0,WeatherDisplay:10.37,2013-09-28 06:14:00,
2013-09-28 01:19:00,59.6,53.1,30.00,South,180,0.0,0.0,79,0.00,CLR,,0.00,0.0,WeatherDisplay:10.37,2013-09-28 06:19:00,
2013-09-28 01:24:00,59.2,53.0,30.00,South,180,0.0,0.0,80,0.00,CLR,,0.00,0.0,WeatherDisplay:10.37,2013-09-28 06:24:00,
2013-09-28 01:29:00,58.9,52.7,30.00,South,180,0.0,0.0,80,0.00,CLR,,0.00,0.0,WeatherDisplay:10.37,2013-09-28 06:29:00,
2013-09-28 01:34:00,58.6,52.4,30.00,South,180,0.0,0.0,80,0.00,CLR,,0.00,0.0,WeatherDisplay:10.37,2013-09-28 06:34:00,
2013-09-28 01:39:00,58.1,52.3,30.00,South,180,0.0,0.0,81,0.00,CLR,,0.00,0.0,WeatherDisplay:10.37,2013-09-28 06:39:00,
2013-09-28 01:44:00,57.6,51.8,30.00,South,180,0.0,0.0,81,0.00,CLR,,0.00,0.0,WeatherDisplay:10.37,2013-09-28 06:44:00,
2013-09-28 01:49:00,57.3,51.9,30.00,South,180,0.0,0.0,82,0.00,CLR,,0.00,0.0,WeatherDisplay:10.37,2013-09-28 06:49:00,
2013-09-28 01:54:00,57.0,51.9,30.00,South,180,0.0,0.0,83,0.00,CLR,,0.00,0.0,WeatherDisplay:10.37,2013-09-28 06:54:00,
2013-09-28 01:59:00,56.7,51.6,30.00,South,180,0.0,0.0,83,0.00,CLR,,0.00,0.0,WeatherDisplay:10.37,2013-09-28 06:59:00,
2013-09-28 02:04:00,56.5,51.7,30.00,South,180,0.0,0.0,84,0.00,CLR,,0.00,0.0,WeatherDisplay:10.37,2013-09-28 07:04:00,
2013-09-28 02:09:00,56.2,51.4,30.00,South,180,0.0,0.0,84,0.00,CLR,,0.00,0.0,WeatherDisplay:10.37,2013-09-28 07:09:00,
2013-09-28 02:14:00,56.0,51.6,30.00,South,180,0.0,0.0,85,0.00,CLR,,0.00,0.0,WeatherDisplay:10.37,2013-09-28 07:14:00,
2013-09-28 02:19:00,55.7,51.6,29.99,South,180,0.0,0.0,86,0.00,CLR,,0.00,0.0,WeatherDisplay:10.37,2013-09-28 07:19:00,
2013-09-28 02:24:00,55.6,51.5,29.99,South,180,0.0,0.0,86,0.00,CLR,,0.00,0.0,WeatherDisplay:10.37,2013-09-28 07:24:00,
2013-09-28 02:29:00,55.6,51.5,29.99,South,180,0.0,0.0,86,0.00,CLR,,0.00,0.0,WeatherDisplay:10.37,2013-09-28 07:29:00,
2013-09-28 02:34:00,55.4,51.3,29.99,South,180,0.0,0.0,86,0.00,CLR,,0.00,0.0,WeatherDisplay:10.37,2013-09-28 07:34:00,
2013-09-28 02:39:00,55.3,51.2,29.99,South,180,0.0,0.0,86,0.00,CLR,,0.00,0.0,WeatherDisplay:10.37,2013-09-28 07:39:00,
2013-09-28 02:44:00,55.1,51.0,29.99,South,180,0.0,0.0,86,0.00,CLR,,0.00,0.0,WeatherDisplay:10.37,2013-09-28 07:44:00,
2013-09-28 02:49:00,55.0,50.9,29.99,South,180,0.0,0.0,86,0.00,CLR,,0.00,0.0,WeatherDisplay:10.37,2013-09-28 07:49:00,
2013-09-28 02:54:00,55.0,51.2,29.99,South,180,0.0,0.0,87,0.00,CLR,,0.00,0.0,WeatherDisplay:10.37,2013-09-28 07:54:00,
2013-09-28 02:59:00,54.8,51.0,29.98,South,180,0.0,0.0,87,0.00,CLR,,0.00,0.0,WeatherDisplay:10.37,2013-09-28 07:59:00,
2013-09-28 03:04:00,54.8,51.0,29.98,South,180,0.0,0.0,87,0.00,CLR,,0.00,0.0,WeatherDisplay:10.37,2013-09-28 08:04:00,
2013-09-28 03:09:00,54.7,50.9,29.98,South,180,0.0,0.0,87,0.00,CLR,,0.00,0.0,WeatherDisplay:10.37,2013-09-28 08:09:00,
2013-09-28 03:14:00,54.7,50.9,29.98,South,180,0.0,0.0,87,0.00,CLR,,0.00,0.0,WeatherDisplay:10.37,2013-09-28 08:14:00,
2013-09-28 03:19:00,54.5,50.4,29.98,South,180,0.0,0.0,86,0.00,CLR,,0.00,0.0,WeatherDisplay:10.37,2013-09-28 08:19:00,
2013-09-28 03:24:00,54.4,50.6,29.98,South,180,0.0,0.0,87,0.00,CLR,,0.00,0.0,WeatherDisplay:10.37,2013-09-28 08:24:00,
2013-09-28 03:29:00,54.4,50.6,29.98,South,180,0.0,0.0,87,0.00,CLR,,0.00,0.0,WeatherDisplay:10.37,2013-09-28 08:29:00,
2013-09-28 03:34:00,54.2,50.4,29.97,South,180,0.0,0.0,87,0.00,CLR,,0.00,0.0,WeatherDisplay:10.37,2013-09-28 08:34:00,
2013-09-28 03:39:00,54.2,50.1,29.97,South,180,0.0,0.0,86,0.00,CLR,,0.00,0.0,WeatherDisplay:10.37,2013-09-28 08:39:00,
2013-09-28 03:44:00,54.1,50.3,29.98,South,180,0.0,0.0,87,0.00,CLR,,0.00,0.0,WeatherDisplay:10.37,2013-09-28 08:44:00,
2013-09-28 03:49:00,53.9,50.1,29.98,South,180,0.0,0.0,87,0.00,CLR,,0.00,0.0,WeatherDisplay:10.37,2013-09-28 08:49:00,
2013-09-28 03:54:00,53.9,50.1,29.98,South,180,0.0,0.0,87,0.00,CLR,,0.00,0.0,WeatherDisplay:10.37,2013-09-28 08:54:00,
2013-09-28 03:59:00,53.8,50.0,29.98,South,180,0.0,0.0,87,0.00,CLR,,0.00,0.0,WeatherDisplay:10.37,2013-09-28 08:59:00,
2013-09-28 04:04:00,53.6,49.8,29.98,South,180,0.0,0.0,87,0.00,CLR,,0.00,0.0,WeatherDisplay:10.37,2013-09-28 09:04:00,
2013-09-28 04:09:00,53.6,49.8,29.98,South,180,0.0,0.0,87,0.00,CLR,,0.00,0.0,WeatherDisplay:10.37,2013-09-28 09:09:00,
2013-09-28 04:14:00,53.5,49.7,29.98,South,180,0.0,0.0,87,0.00,CLR,,0.00,0.0,WeatherDisplay:10.37,2013-09-28 09:14:00,
2013-09-28 04:19:00,53.5,49.7,29.98,South,180,0.0,0.0,87,0.00,CLR,,0.00,0.0,WeatherDisplay:10.37,2013-09-28 09:19:00,
2013-09-28 04:24:00,53.5,49.7,29.98,South,180,0.0,0.0,87,0.00,SCT,,0.00,0.0,WeatherDisplay:10.37,2013-09-28 09:24:00,
2013-09-28 04:29:00,53.5,49.7,29.98,South,180,0.0,0.0,87,0.00,SCT,,0.00,0.0,WeatherDisplay:10.37,2013-09-28 09:29:00,
2013-09-28 04:34:00,53.3,49.5,29.97,South,180,0.0,0.0,87,0.00,SCT,,0.00,0.0,WeatherDisplay:10.37,2013-09-28 09:34:00,
2013-09-28 04:39:00,53.3,49.5,29.97,South,180,0.0,0.0,87,0.00,SCT,,0.00,0.0,WeatherDisplay:10.37,2013-09-28 09:39:00,
2013-09-28 04:44:00,53.2,49.7,29.97,South,180,0.0,0.0,88,0.00,SCT,,0.00,0.0,WeatherDisplay:10.37,2013-09-28 09:44:00,
2013-09-28 04:49:00,53.3,49.8,29.97,South,180,0.0,0.0,88,0.00,SCT,,0.00,0.0,WeatherDisplay:10.37,2013-09-28 09:49:00,
2013-09-28 04:54:00,53.3,49.8,29.97,South,180,0.0,0.0,88,0.00,SCT,,0.00,0.0,WeatherDisplay:10.37,2013-09-28 09:54:00,
2013-09-28 04:59:00,53.3,49.8,29.97,South,180,0.0,0.0,88,0.00,SCT,,0.00,0.0,WeatherDisplay:10.37,2013-09-28 09:59:00,
2013-09-28 05:04:00,53.3,49.8,29.97,South,180,0.0,0.0,88,0.00,CLR,,0.00,0.0,WeatherDisplay:10.37,2013-09-28 10:04:00,
2013-09-28 05:09:00,53.5,50.0,29.97,South,180,0.0,0.0,88,0.00,CLR,,0.00,0.0,WeatherDisplay:10.37,2013-09-28 10:09:00,
2013-09-28 05:14:00,53.9,50.4,29.96,South,180,0.0,0.0,88,0.00,CLR,,0.00,0.0,WeatherDisplay:10.37,2013-09-28 10:14:00,
2013-09-28 05:19:00,54.2,50.7,29.96,South,180,0.0,0.0,88,0.00,CLR,,0.00,0.0,WeatherDisplay:10.37,2013-09-28 10:19:00,
2013-09-28 05:24:00,54.5,50.7,29.96,South,180,0.0,0.0,87,0.00,SCT,,0.00,0.0,WeatherDisplay:10.37,2013-09-28 10:24:00,
2013-09-28 05:29:00,54.7,50.9,29.97,South,180,0.0,0.0,87,0.00,SCT,,0.00,0.0,WeatherDisplay:10.37,2013-09-28 10:29:00,
2013-09-28 05:35:00,54.7,50.9,29.97,South,180,0.0,0.0,87,0.00,SCT,,0.00,0.0,WeatherDisplay:10.37,2013-09-28 10:35:00,
2013-09-28 05:40:00,54.7,50.6,29.97,South,180,0.0,0.0,86,0.00,SCT,,0.00,0.0,WeatherDisplay:10.37,2013-09-28 10:40:00,
2013-09-28 05:45:00,54.8,50.7,29.97,South,180,0.0,0.0,86,0.00,CLR,,0.00,0.0,WeatherDisplay:10.37,2013-09-28 10:45:00,
2013-09-28 05:50:00,54.8,50.7,29.97,South,180,0.0,0.0,86,0.00,CLR,,0.00,0.0,WeatherDisplay:10.37,2013-09-28 10:50:00,
2013-09-28 05:55:00,54.8,50.7,29.97,South,180,0.0,0.0,86,0.00,CLR,,0.00,0.0,WeatherDisplay:10.37,2013-09-28 10:55:00,
2013-09-28 06:00:00,54.7,50.9,29.97,South,180,0.0,0.0,87,0.00,CLR,,0.00,0.0,WeatherDisplay:10.37,2013-09-28 11:00:00,
2013-09-28 06:05:00,54.7,50.9,29.97,South,180,0.0,0.0,87,0.00,SCT,,0.00,0.0,WeatherDisplay:10.37,2013-09-28 11:05:00,
2013-09-28 06:10:00,54.7,51.2,29.97,South,180,0.0,0.0,88,0.00,SCT,,0.00,0.0,WeatherDisplay:10.37,2013-09-28 11:10:00,
2013-09-28 06:15:00,55.0,51.5,29.97,South,181,0.0,1.1,88,0.00,SCT,,0.00,0.0,WeatherDisplay:10.37,2013-09-28 11:15:00,
2013-09-28 06:20:00,55.3,51.8,29.97,South,181,0.0,0.0,88,0.00,SCT,,0.00,0.0,WeatherDisplay:10.37,2013-09-28 11:20:00,
2013-09-28 06:25:00,55.9,52.4,29.97,South,181,0.0,0.0,88,0.00,SCT,,0.00,0.0,WeatherDisplay:10.37,2013-09-28 11:25:00,
2013-09-28 06:30:00,56.7,52.6,29.96,South,181,0.0,0.0,86,0.00,SCT,,0.00,0.0,WeatherDisplay:10.37,2013-09-28 11:30:00,
2013-09-28 06:35:00,57.5,53.0,29.96,South,181,0.0,0.0,85,0.00,SCT,,0.00,0.0,WeatherDisplay:10.37,2013-09-28 11:35:00,
2013-09-28 06:40:00,58.1,53.0,29.96,South,180,0.0,1.2,83,0.00,SCT,,0.00,0.0,WeatherDisplay:10.37,2013-09-28 11:40:00,
2013-09-28 06:45:00,58.7,52.5,29.96,South,184,0.6,4.6,80,0.00,SCT,,0.00,0.0,WeatherDisplay:10.37,2013-09-28 11:45:00,
2013-09-28 06:50:00,59.2,52.7,29.96,South,180,0.4,3.5,79,0.00,SCT,,0.00,0.0,WeatherDisplay:10.37,2013-09-28 11:50:00,
2013-09-28 06:55:00,59.5,52.3,29.96,South,186,0.0,2.3,77,0.00,SCT,,0.00,7.0,WeatherDisplay:10.37,2013-09-28 11:55:00,
2013-09-28 07:00:00,59.8,52.6,29.96,South,175,0.0,3.5,77,0.00,SCT,,0.00,9.0,WeatherDisplay:10.37,2013-09-28 12:00:00,
2013-09-28 07:05:00,59.8,52.2,29.96,South,171,0.0,1.1,76,0.00,SCT,,0.00,11.0,WeatherDisplay:10.37,2013-09-28 12:05:00,
2013-09-28 07:10:00,59.9,52.3,29.96,South,175,0.1,4.6,76,0.00,SCT,,0.00,18.0,WeatherDisplay:10.37,2013-09-28 12:10:00,
2013-09-28 07:15:00,59.8,52.2,29.96,South,180,0.0,2.3,76,0.00,SCT,,0.00,28.0,WeatherDisplay:10.37,2013-09-28 12:15:00,
2013-09-28 07:20:00,59.8,52.2,29.96,SSE,168,0.0,1.2,76,0.00,SCT,,0.00,39.0,WeatherDisplay:10.37,2013-09-28 12:20:00,
2013-09-28 07:25:00,59.9,52.3,29.96,SSE,160,0.0,1.2,76,0.00,BKN,,0.00,40.0,WeatherDisplay:10.37,2013-09-28 12:25:00,
2013-09-28 07:30:00,59.9,52.3,29.96,SSW,198,1.5,6.9,76,0.00,BKN,,0.00,44.0,WeatherDisplay:10.37,2013-09-28 12:30:00,
2013-09-28 07:35:00,60.1,52.5,29.95,SE,141,0.4,4.6,76,0.00,BKN,,0.00,81.0,WeatherDisplay:10.37,2013-09-28 12:35:00,
2013-09-28 07:40:00,60.4,52.8,29.95,SSE,160,0.1,2.3,76,0.00,BKN,,0.00,113.0,WeatherDisplay:10.37,2013-09-28 12:40:00,
2013-09-28 07:45:00,60.5,52.9,29.95,SSE,160,0.0,1.2,76,0.00,OVC,,0.00,107.0,WeatherDisplay:10.37,2013-09-28 12:45:00,
2013-09-28 07:50:00,60.7,52.7,29.96,SE,145,0.0,5.8,75,0.00,OVC,,0.00,156.0,WeatherDisplay:10.37,2013-09-28 12:50:00,
2013-09-28 07:55:00,61.0,53.0,29.96,SSE,167,0.3,1.2,75,0.00,OVC,,0.00,81.0,WeatherDisplay:10.37,2013-09-28 12:55:00,
2013-09-28 08:00:00,61.0,53.0,29.95,ESE,119,1.1,4.6,75,0.00,OVC,,0.00,116.0,WeatherDisplay:10.37,2013-09-28 13:00:00,
2013-09-28 08:05:00,61.2,52.8,29.95,SSE,164,0.0,1.1,74,0.00,OVC,,0.00,165.0,WeatherDisplay:10.37,2013-09-28 13:05:00,
2013-09-28 08:10:00,61.3,52.9,29.95,SSE,164,0.1,1.2,74,0.00,OVC,,0.00,172.0,WeatherDisplay:10.37,2013-09-28 13:10:00,
2013-09-28 08:15:00,61.6,53.2,29.95,SSW,195,0.4,9.9,74,0.00,OVC,,0.00,193.0,WeatherDisplay:10.37,2013-09-28 13:15:00,
2013-09-28 08:20:00,61.8,53.1,29.95,SE,132,1.6,5.8,73,0.00,OVC,,0.00,160.0,WeatherDisplay:10.37,2013-09-28 13:20:00,
2013-09-28 08:25:00,62.1,53.3,29.95,SSE,163,0.8,7.7,73,0.00,OVC,,0.00,144.0,WeatherDisplay:10.37,2013-09-28 13:25:00,
2013-09-28 08:30:00,62.4,53.6,29.94,South,178,2.6,8.1,73,0.00,OVC,,0.00,183.0,WeatherDisplay:10.37,2013-09-28 13:30:00,
2013-09-28 08:35:00,62.9,54.1,29.94,SSW,192,1.3,5.5,73,0.00,OVC,,0.00,165.0,WeatherDisplay:10.37,2013-09-28 13:35:00,
2013-09-28 08:40:00,63.2,54.0,29.94,ESE,119,3.2,7.7,72,0.00,OVC,,0.00,83.0,WeatherDisplay:10.37,2013-09-28 13:40:00,
2013-09-28 08:45:00,63.5,53.9,29.93,South,173,5.3,9.9,71,0.00,BKN,,0.00,77.0,WeatherDisplay:10.37,2013-09-28 13:45:00,
2013-09-28 08:50:00,63.7,54.5,29.93,SE,146,1.0,5.8,72,0.00,BKN,,0.00,74.0,WeatherDisplay:10.37,2013-09-28 13:50:00,
2013-09-28 08:55:00,64.0,54.4,29.93,South,185,1.3,4.6,71,0.00,BKN,,0.00,100.0,WeatherDisplay:10.37,2013-09-28 13:55:00,
2013-09-28 09:00:00,64.2,54.2,29.93,SSW,196,2.1,10.4,70,0.00,BKN,,0.00,104.0,WeatherDisplay:10.37,2013-09-28 14:00:00,
2013-09-28 09:05:00,64.3,54.3,29.93,South,180,0.9,3.3,70,0.00,BKN,,0.00,118.0,WeatherDisplay:10.37,2013-09-28 14:05:00,
2013-09-28 09:10:00,64.5,54.5,29.93,SSE,168,4.2,9.2,70,0.00,BKN,,0.00,146.0,WeatherDisplay:10.37,2013-09-28 14:10:00,
2013-09-28 09:15:00,65.0,54.6,29.93,South,175,6.6,14.3,69,0.00,SCT,,0.00,102.0,WeatherDisplay:10.37,2013-09-28 14:15:00,
2013-09-28 09:20:00,65.8,54.9,29.93,SE,144,4.1,5.8,68,0.00,SCT,,0.00,98.0,WeatherDisplay:10.37,2013-09-28 14:20:00,
2013-09-28 09:25:00,66.6,54.9,29.93,SSE,153,4.2,6.9,66,0.00,SCT,,0.00,220.0,WeatherDisplay:10.37,2013-09-28 14:25:00,
2013-09-28 09:30:00,67.1,55.4,29.92,SE,144,7.2,11.0,66,0.00,SCT,,0.00,218.0,WeatherDisplay:10.37,2013-09-28 14:30:00,
2013-09-28 09:35:00,67.3,55.1,29.92,SSE,156,8.2,13.2,65,0.00,SCT,,0.00,396.0,WeatherDisplay:10.37,2013-09-28 14:35:00,
2013-09-28 09:40:00,67.4,55.2,29.92,SW,221,5.8,10.4,65,0.00,SCT,,0.00,418.0,WeatherDisplay:10.37,2013-09-28 14:40:00,
2013-09-28 09:45:00,67.6,55.4,29.92,SSE,154,4.5,15.4,65,0.00,CLR,,0.00,475.0,WeatherDisplay:10.37,2013-09-28 14:45:00,
2013-09-28 09:50:00,67.9,55.7,29.92,SE,144,2.6,9.2,65,0.00,CLR,,0.00,459.0,WeatherDisplay:10.37,2013-09-28 14:50:00,
2013-09-28 09:55:00,68.1,55.5,29.92,SSE,150,5.5,8.1,64,0.00,CLR,,0.00,462.0,WeatherDisplay:10.37,2013-09-28 14:55:00,
2013-09-28 10:00:00,68.3,55.6,29.91,SSE,148,5.3,15.0,64,0.00,CLR,,0.00,489.0,WeatherDisplay:10.37,2013-09-28 15:00:00,
2013-09-28 10:05:00,68.8,56.1,29.91,SE,146,5.1,8.1,64,0.00,BKN,,0.00,504.0,WeatherDisplay:10.37,2013-09-28 15:05:00,
2013-09-28 10:10:00,69.1,56.4,29.91,South,183,3.9,11.0,64,0.00,BKN,,0.00,513.0,WeatherDisplay:10.37,2013-09-28 15:10:00,
2013-09-28 10:15:00,69.4,56.3,29.91,ESE,103,2.3,6.9,63,0.00,BKN,,0.00,529.0,WeatherDisplay:10.37,2013-09-28 15:15:00,
2013-09-28 10:20:00,69.8,56.6,29.91,SE,136,3.4,9.2,63,0.00,BKN,,0.00,555.0,WeatherDisplay:10.37,2013-09-28 15:20:00,
2013-09-28 10:25:00,70.1,56.9,29.91,SSE,150,5.5,10.4,63,0.00,BKN,,0.00,290.0,WeatherDisplay:10.37,2013-09-28 15:25:00,
2013-09-28 10:30:00,70.3,57.1,29.90,SSW,198,4.1,12.7,63,0.00,BKN,,0.00,260.0,WeatherDisplay:10.37,2013-09-28 15:30:00,
2013-09-28 10:35:00,70.1,56.9,29.90,SSE,159,6.5,14.3,63,0.00,BKN,,0.00,397.0,WeatherDisplay:10.37,2013-09-28 15:35:00,
2013-09-28 10:40:00,70.3,57.1,29.90,SSE,164,6.6,11.0,63,0.00,BKN,,0.00,279.0,WeatherDisplay:10.37,2013-09-28 15:40:00,
2013-09-28 10:45:00,70.3,57.1,29.89,South,189,5.2,10.4,63,0.00,CLR,,0.00,236.0,WeatherDisplay:10.37,2013-09-28 15:45:00,
2013-09-28 10:50:00,70.6,57.4,29.89,SSE,147,7.7,12.7,63,0.00,CLR,,0.00,512.0,WeatherDisplay:10.37,2013-09-28 15:50:00,
2013-09-28 10:55:00,71.3,57.6,29.89,SSE,165,6.9,11.5,62,0.00,CLR,,0.00,422.0,WeatherDisplay:10.37,2013-09-28 15:55:00,
2013-09-28 11:00:00,71.8,57.6,29.89,SSE,154,6.6,9.2,61,0.00,CLR,,0.00,591.0,WeatherDisplay:10.37,2013-09-28 16:00:00,
2013-09-28 11:05:00,72.1,57.9,29.89,South,178,6.6,17.6,61,0.00,CLR,,0.00,501.0,WeatherDisplay:10.37,2013-09-28 16:05:00,
2013-09-28 11:10:00,72.7,58.0,29.89,SSE,149,7.4,18.7,60,0.00,CLR,,0.00,670.0,WeatherDisplay:10.37,2013-09-28 16:10:00,
2013-09-28 11:15:00,72.8,58.6,29.88,South,178,6.4,15.4,61,0.00,CLR,,0.00,536.0,WeatherDisplay:10.37,2013-09-28 16:15:00,
2013-09-28 11:20:00,73.5,58.8,29.88,SE,139,4.6,11.5,60,0.00,CLR,,0.00,668.0,WeatherDisplay:10.37,2013-09-28 16:20:00,
2013-09-28 11:25:00,73.9,58.7,29.88,South,170,8.5,16.5,59,0.00,CLR,,0.00,643.0,WeatherDisplay:10.37,2013-09-28 16:25:00,
2013-09-28 11:30:00,74.0,58.8,29.88,SE,145,6.2,10.4,59,0.00,CLR,,0.00,508.0,WeatherDisplay:10.37,2013-09-28 16:30:00,
2013-09-28 11:35:00,74.4,59.1,29.86,SSE,161,1.7,4.6,59,0.00,CLR,,0.00,668.0,WeatherDisplay:10.37,2013-09-28 16:35:00,
2013-09-28 11:40:00,74.9,59.1,29.86,SSW,197,1.0,12.1,58,0.00,CLR,,0.00,575.0,WeatherDisplay:10.37,2013-09-28 16:40:00,
2013-09-28 11:45:00,74.7,58.9,29.86,SSE,163,2.8,9.2,58,0.00,CLR,,0.00,403.0,WeatherDisplay:10.37,2013-09-28 16:45:00,
2013-09-28 11:50:00,74.6,58.8,29.86,SE,146,9.2,17.3,58,0.00,CLR,,0.00,694.0,WeatherDisplay:10.37,2013-09-28 16:50:00,
2013-09-28 11:55:00,75.1,59.3,29.86,ESE,109,9.3,16.5,58,0.00,CLR,,0.00,717.0,WeatherDisplay:10.37,2013-09-28 16:55:00,
2013-09-28 12:00:00,75.4,58.6,29.85,SSE,168,8.9,15.4,56,0.00,CLR,,0.00,610.0,WeatherDisplay:10.37,2013-09-28 17:00:00,
2013-09-28 12:05:00,75.1,59.8,29.85,South,175,2.3,6.6,59,0.00,CLR,,0.00,436.0,WeatherDisplay:10.37,2013-09-28 17:05:00,
2013-09-28 12:10:00,74.9,59.1,29.85,SSW,194,7.6,13.2,58,0.00,CLR,,0.00,566.0,WeatherDisplay:10.37,2013-09-28 17:10:00,
2013-09-28 12:15:00,74.9,59.1,29.84,SE,141,8.8,17.6,58,0.00,CLR,,0.00,564.0,WeatherDisplay:10.37,2013-09-28 17:15:00,
2013-09-28 12:20:00,75.6,60.3,29.84,SE,144,7.2,12.7,59,0.00,CLR,,0.00,541.0,WeatherDisplay:10.37,2013-09-28 17:20:00,
2013-09-28 12:25:00,75.8,60.0,29.84,SE,143,6.8,10.4,58,0.00,SCT,,0.00,613.0,WeatherDisplay:10.37,2013-09-28 17:25:00,
2013-09-28 12:30:00,76.1,60.2,29.84,ESE,116,7.2,13.2,58,0.00,SCT,,0.00,701.0,WeatherDisplay:10.37,2013-09-28 17:30:00,
2013-09-28 12:35:00,76.5,60.1,29.84,SSE,148,4.3,8.1,57,0.00,SCT,,0.00,694.0,WeatherDisplay:10.37,2013-09-28 17:35:00,
2013-09-28 12:40:00,76.8,59.9,29.84,SSW,203,11.4,23.1,56,0.00,SCT,,0.00,671.0,WeatherDisplay:10.37,2013-09-28 17:40:00,
2013-09-28 12:45:00,76.3,59.4,29.83,SSE,164,12.7,16.5,56,0.00,BKN,,0.00,380.0,WeatherDisplay:10.37,2013-09-28 17:45:00,
2013-09-28 12:50:00,76.7,59.8,29.83,SE,144,10.7,15.4,56,0.00,BKN,,0.00,724.0,WeatherDisplay:10.37,2013-09-28 17:50:00,
2013-09-28 12:55:00,76.5,59.6,29.83,South,182,15.6,26.5,56,0.00,BKN,,0.00,364.0,WeatherDisplay:10.37,2013-09-28 17:55:00,
2013-09-28 13:00:00,76.5,60.1,29.82,South,180,6.8,10.4,57,0.00,BKN,,0.00,371.0,WeatherDisplay:10.37,2013-09-28 18:00:00,
2013-09-28 13:06:00,76.5,60.1,29.82,SSE,167,8.8,15.4,57,0.00,BKN,,0.00,243.0,WeatherDisplay:10.37,2013-09-28 18:06:00,
2013-09-28 13:11:00,76.3,60.4,29.82,South,187,10.6,19.8,58,0.00,OVC,,0.00,313.0,WeatherDisplay:10.37,2013-09-28 18:11:00,
2013-09-28 13:16:00,76.1,60.7,29.82,South,182,9.4,13.2,59,0.00,OVC,,0.00,399.0,WeatherDisplay:10.37,2013-09-28 18:16:00,
2013-09-28 13:21:00,76.5,61.1,29.82,South,182,8.7,16.5,59,0.00,OVC,,0.00,571.0,WeatherDisplay:10.37,2013-09-28 18:21:00,
2013-09-28 13:26:00,76.7,60.3,29.82,South,183,11.7,14.3,57,0.00,OVC,,0.00,427.0,WeatherDisplay:10.37,2013-09-28 18:26:00,
2013-09-28 13:31:00,76.5,61.1,29.81,SSE,157,8.0,11.5,59,0.00,OVC,,0.00,297.0,WeatherDisplay:10.37,2013-09-28 18:31:00,
2013-09-28 13:36:00,76.5,61.1,29.81,South,190,8.7,12.7,59,0.00,OVC,,0.00,323.0,WeatherDisplay:10.37,2013-09-28 18:36:00,
2013-09-28 13:41:00,76.7,61.3,29.81,ESE,121,5.0,10.4,59,0.00,OVC,,0.00,264.0,WeatherDisplay:10.37,2013-09-28 18:41:00,
2013-09-28 13:46:00,76.7,61.3,29.80,SSE,167,8.9,14.3,59,0.00,OVC,,0.00,120.0,WeatherDisplay:10.37,2013-09-28 18:46:00,
2013-09-28 13:51:00,76.7,61.8,29.80,South,176,7.6,15.4,60,0.00,OVC,,0.00,86.0,WeatherDisplay:10.37,2013-09-28 18:51:00,
2013-09-28 13:56:00,76.5,61.1,29.80,South,176,12.3,15.4,59,0.00,OVC,,0.00,67.0,WeatherDisplay:10.37,2013-09-28 18:56:00,
2013-09-28 14:01:00,76.3,61.4,29.80,SSW,205,9.4,15.4,60,0.00,OVC,,0.00,83.0,WeatherDisplay:10.37,2013-09-28 19:01:00,
2013-09-28 14:06:00,76.3,61.9,29.80,SSE,161,5.3,8.1,61,0.00,OVC,,0.00,142.0,WeatherDisplay:10.37,2013-09-28 19:06:00,
2013-09-28 14:11:00,76.3,61.4,29.80,SE,142,6.3,15.0,60,0.00,OVC,,0.00,104.0,WeatherDisplay:10.37,2013-09-28 19:11:00,
2013-09-28 14:16:00,76.3,61.4,29.79,SSE,161,1.9,8.1,60,0.00,OVC,,0.00,93.0,WeatherDisplay:10.37,2013-09-28 19:16:00,
2013-09-28 14:21:00,76.1,63.0,29.79,South,177,9.4,15.4,64,0.00,OVC,,0.00,54.0,WeatherDisplay:10.37,2013-09-28 19:21:00,
2013-09-28 14:26:00,76.0,62.0,29.79,South,184,2.9,8.1,62,0.00,-RA,,0.00,47.0,WeatherDisplay:10.37,2013-09-28 19:26:00,
2013-09-28 14:31:00,75.8,61.4,29.80,SSE,155,8.0,14.3,61,0.00,-RA,,0.00,49.0,WeatherDisplay:10.37,2013-09-28 19:31:00,
2013-09-28 14:36:00,75.8,61.4,29.80,SSE,168,7.7,12.7,61,0.00,-RA,,0.00,37.0,WeatherDisplay:10.37,2013-09-28 19:36:00,
2013-09-28 14:41:00,75.6,61.7,29.80,SSE,164,1.3,10.4,62,0.00,-RA,,0.00,47.0,WeatherDisplay:10.37,2013-09-28 19:41:00,
2013-09-28 14:46:00,75.6,61.7,29.80,South,183,4.8,10.4,62,0.00,-RA,,0.00,37.0,WeatherDisplay:10.37,2013-09-28 19:46:00,
2013-09-28 14:51:00,75.6,61.7,29.80,South,169,8.2,14.3,62,0.00,-RA,,0.00,39.0,WeatherDisplay:10.37,2013-09-28 19:51:00,
2013-09-28 14:56:00,75.1,62.5,29.80,SW,219,12.3,22.0,65,0.00,-RA,,0.00,21.0,WeatherDisplay:10.37,2013-09-28 19:56:00,
2013-09-28 15:01:00,74.2,63.0,29.81,South,178,8.4,15.4,68,0.00,OVC,,0.00,26.0,WeatherDisplay:10.37,2013-09-28 20:01:00,
2013-09-28 15:06:00,73.0,63.4,29.81,SSW,204,8.3,12.7,72,0.00,OVC,,0.00,33.0,WeatherDisplay:10.37,2013-09-28 20:06:00,
2013-09-28 15:11:00,72.1,63.7,29.81,South,176,4.4,9.2,75,0.00,OVC,,0.00,26.0,WeatherDisplay:10.37,2013-09-28 20:11:00,
2013-09-28 15:16:00,71.1,63.9,29.82,South,177,3.4,5.8,78,0.00,OVC,,0.00,42.0,WeatherDisplay:10.37,2013-09-28 20:16:00,
2013-09-28 15:21:00,70.4,64.3,29.82,SSW,196,5.7,7.7,81,0.00,OVC,,0.00,46.0,WeatherDisplay:10.37,2013-09-28 20:21:00,
2013-09-28 15:26:00,69.9,64.2,29.82,SSE,166,0.0,0.0,82,0.01,RA,,0.01,37.0,WeatherDisplay:10.37,2013-09-28 20:26:00,
2013-09-28 15:31:00,69.6,64.5,29.81,South,182,1.3,7.7,84,0.01,RA,,0.01,40.0,WeatherDisplay:10.37,2013-09-28 20:31:00,
2013-09-28 15:36:00,69.3,64.6,29.81,South,174,0.6,5.5,85,0.01,OVC,,0.01,56.0,WeatherDisplay:10.37,2013-09-28 20:36:00,
2013-09-28 15:41:00,69.1,64.7,29.81,SW,214,2.1,11.5,86,0.01,OVC,,0.01,49.0,WeatherDisplay:10.37,2013-09-28 20:41:00,
2013-09-28 15:46:00,68.8,64.4,29.81,South,171,8.1,16.5,86,0.02,RA,,0.02,40.0,WeatherDisplay:10.37,2013-09-28 20:46:00,
2013-09-28 15:51:00,68.4,64.7,29.81,South,190,8.1,22.0,88,0.03,RA,,0.03,49.0,WeatherDisplay:10.37,2013-09-28 20:51:00,
2013-09-28 15:56:00,68.1,64.7,29.81,SSW,202,6.0,12.1,89,0.05,RA,,0.05,54.0,WeatherDisplay:10.37,2013-09-28 20:56:00,
2013-09-28 16:02:00,67.9,64.9,29.81,SSE,149,7.2,11.5,90,0.05,RA,,0.05,44.0,WeatherDisplay:10.37,2013-09-28 21:02:00,
2013-09-28 16:07:00,67.8,65.1,29.81,SW,219,5.3,13.8,91,0.06,RA,,0.06,28.0,WeatherDisplay:10.37,2013-09-28 21:07:00,
2013-09-28 16:12:00,67.6,64.9,29.81,South,172,3.8,8.1,91,0.06,RA,,0.06,33.0,WeatherDisplay:10.37,2013-09-28 21:12:00,
2013-09-28 16:17:00,67.4,65.0,29.81,SSE,157,1.2,8.1,92,0.06,OVC,,0.06,21.0,WeatherDisplay:10.37,2013-09-28 21:17:00,
2013-09-28 16:22:00,67.4,65.0,29.81,SSW,202,6.4,11.5,92,0.06,OVC,,0.06,25.0,WeatherDisplay:10.37,2013-09-28 21:22:00,
2013-09-28 16:27:00,67.3,64.9,29.81,South,178,6.5,11.0,92,0.06,RA,,0.07,30.0,WeatherDisplay:10.37,2013-09-28 21:27:00,
2013-09-28 16:32:00,67.3,65.2,29.81,South,177,3.3,6.9,93,0.07,RA,,0.08,21.0,WeatherDisplay:10.37,2013-09-28 21:32:00,
2013-09-28 16:37:00,67.1,65.0,29.81,SSE,160,4.5,15.0,93,0.07,RA,,0.08,14.0,WeatherDisplay:10.37,2013-09-28 21:37:00,
2013-09-28 16:42:00,67.1,65.0,29.81,South,176,6.1,11.5,93,0.07,OVC,,0.08,21.0,WeatherDisplay:10.37,2013-09-28 21:42:00,
2013-09-28 16:47:00,67.1,65.3,29.81,SSE,154,3.8,13.2,94,0.06,OVC,,0.09,19.0,WeatherDisplay:10.37,2013-09-28 21:47:00,
2013-09-28 16:52:00,67.1,65.3,29.81,South,180,6.3,13.2,94,0.06,RA,,0.09,19.0,WeatherDisplay:10.37,2013-09-28 21:52:00,
2013-09-28 16:57:00,66.9,65.1,29.81,South,185,5.6,11.5,94,0.06,RA,,0.10,12.0,WeatherDisplay:10.37,2013-09-28 21:57:00,
2013-09-28 17:02:00,66.9,65.1,29.81,South,173,5.4,13.2,94,0.08,RA,,0.14,25.0,WeatherDisplay:10.37,2013-09-28 22:02:00,
2013-09-28 17:07:00,66.9,65.1,29.81,South,184,5.7,10.4,94,0.09,RA,,0.15,14.0,WeatherDisplay:10.37,2013-09-28 22:07:00,
2013-09-28 17:12:00,66.8,65.3,29.81,SSW,201,8.8,16.5,95,0.09,RA,,0.16,0.0,WeatherDisplay:10.37,2013-09-28 22:12:00,
2013-09-28 17:17:00,63.7,61.3,29.85,WNW,297,2.1,12.1,92,0.14,RA,,0.20,12.0,WeatherDisplay:10.37,2013-09-28 22:17:00,
2013-09-28 17:22:00,62.1,59.7,29.85,SW,219,4.2,12.7,92,0.15,RA,,0.21,12.0,WeatherDisplay:10.37,2013-09-28 22:22:00,
2013-09-28 17:27:00,61.3,59.3,29.85,WSW,243,0.9,4.6,93,0.15,RA,,0.22,7.0,WeatherDisplay:10.37,2013-09-28 22:27:00,
2013-09-28 17:32:00,61.0,59.0,29.86,West,259,0.1,1.2,93,0.14,RA,,0.22,5.0,WeatherDisplay:10.37,2013-09-28 22:32:00,
2013-09-28 17:37:00,60.7,58.7,29.86,SSW,207,0.9,3.3,93,0.14,OVC,,0.22,9.0,WeatherDisplay:10.37,2013-09-28 22:37:00,
2013-09-28 17:42:00,60.4,58.4,29.86,SSW,213,1.1,4.6,93,0.14,OVC,,0.22,18.0,WeatherDisplay:10.37,2013-09-28 22:42:00,
2013-09-28 17:47:00,60.1,58.1,29.86,SW,214,0.0,1.2,93,0.14,OVC,,0.22,7.0,WeatherDisplay:10.37,2013-09-28 22:47:00,
2013-09-28 17:52:00,59.8,57.8,29.86,WSW,240,0.0,0.0,93,0.13,OVC,,0.22,0.0,WeatherDisplay:10.37,2013-09-28 22:52:00,
2013-09-28 17:57:00,59.5,57.5,29.86,SSW,199,3.8,9.2,93,0.12,OVC,,0.22,7.0,WeatherDisplay:10.37,2013-09-28 22:57:00,
2013-09-28 18:02:00,59.3,57.3,29.86,WSW,245,0.7,4.6,93,0.09,OVC,,0.22,5.0,WeatherDisplay:10.37,2013-09-28 23:02:00,
2013-09-28 18:07:00,59.2,57.2,29.86,WSW,249,0.0,6.9,93,0.07,OVC,,0.22,0.0,WeatherDisplay:10.37,2013-09-28 23:07:00,
2013-09-28 18:12:00,59.0,57.0,29.86,West,261,2.4,4.6,93,0.07,OVC,,0.22,0.0,WeatherDisplay:10.37,2013-09-28 23:12:00,
2013-09-28 18:17:00,58.9,56.9,29.88,WNW,283,1.8,4.6,93,0.02,OVC,,0.22,0.0,WeatherDisplay:10.37,2013-09-28 23:17:00,
2013-09-28 18:22:00,58.7,56.7,29.88,WSW,246,0.9,8.1,93,0.01,-RA,,0.22,0.0,WeatherDisplay:10.37,2013-09-28 23:22:00,
2013-09-28 18:27:00,58.6,56.6,29.88,SSW,210,0.4,4.6,93,0.00,-RA,,0.22,0.0,WeatherDisplay:10.37,2013-09-28 23:27:00,
2013-09-28 18:32:00,58.4,56.1,29.89,WSW,250,4.1,6.6,92,0.00,-RA,,0.22,5.0,WeatherDisplay:10.37,2013-09-28 23:32:00,
2013-09-28 18:37:00,58.3,56.3,29.89,SW,236,0.0,0.0,93,0.00,-RA,,0.22,0.0,WeatherDisplay:10.37,2013-09-28 23:37:00,
2013-09-28 18:42:00,58.1,56.1,29.89,WSW,241,0.8,4.6,93,0.00,-DZ,,0.22,0.0,WeatherDisplay:10.37,2013-09-28 23:42:00,
2013-09-28 18:47:00,58.0,56.0,29.89,SSW,202,3.4,6.6,93,0.00,-DZ,,0.22,0.0,WeatherDisplay:10.37,2013-09-28 23:47:00,
2013-09-28 18:52:00,57.8,55.8,29.89,West,275,2.0,9.2,93,0.00,-DZ,,0.22,0.0,WeatherDisplay:10.37,2013-09-28 23:52:00,
2013-09-28 18:57:00,57.8,55.8,29.89,WSW,257,2.1,6.9,93,0.00,-DZ,,0.22,0.0,WeatherDisplay:10.37,2013-09-28 23:57:00,
2013-09-28 19:02:00,57.6,55.6,29.90,SSW,205,0.0,1.2,93,0.01,RA,,0.23,0.0,WeatherDisplay:10.37,2013-09-29 00:02:00,
2013-09-28 19:07:00,57.5,55.5,29.90,WNW,283,0.8,6.9,93,0.01,RA,,0.23,0.0,WeatherDisplay:10.37,2013-09-29 00:07:00,
2013-09-28 19:12:00,57.5,55.5,29.90,West,265,0.0,3.5,93,0.01,OVC,,0.23,0.0,WeatherDisplay:10.37,2013-09-29 00:12:00,
2013-09-28 19:17:00,57.3,55.3,29.90,WSW,257,0.0,2.2,93,0.01,OVC,,0.23,0.0,WeatherDisplay:10.37,2013-09-29 00:17:00,
2013-09-28 19:22:00,57.0,55.0,29.90,NW,307,3.8,7.7,93,0.01,BKN,,0.23,0.0,WeatherDisplay:10.37,2013-09-29 00:22:00,
2013-09-28 19:27:00,57.0,55.0,29.90,WNW,302,0.1,1.1,93,0.01,BKN,,0.23,0.0,WeatherDisplay:10.37,2013-09-29 00:27:00,
2013-09-28 19:32:00,56.9,54.9,29.92,WNW,299,1.3,4.4,93,0.01,BKN,,0.23,0.0,WeatherDisplay:10.37,2013-09-29 00:32:00,
2013-09-28 19:37:00,56.9,54.9,29.92,WSW,238,0.0,1.2,93,0.01,BKN,,0.23,0.0,WeatherDisplay:10.37,2013-09-29 00:37:00,
2013-09-28 19:42:00,56.7,54.7,29.92,WNW,299,1.1,5.8,93,0.01,SCT,,0.23,0.0,WeatherDisplay:10.37,2013-09-29 00:42:00,
2013-09-28 19:47:00,56.5,54.5,29.92,NNW,328,1.4,4.6,93,0.01,SCT,,0.23,0.0,WeatherDisplay:10.37,2013-09-29 00:47:00,
2013-09-28 19:52:00,56.5,54.5,29.92,West,261,0.0,0.0,93,0.01,SCT,,0.23,0.0,WeatherDisplay:10.37,2013-09-29 00:52:00,
2013-09-28 19:57:00,56.5,54.5,29.92,West,261,0.0,0.0,93,0.01,SCT,,0.23,0.0,WeatherDisplay:10.37,2013-09-29 00:57:00,
2013-09-28 20:02:00,56.3,54.3,29.93,WSW,258,0.0,0.0,93,0.00,CLR,,0.23,0.0,WeatherDisplay:10.37,2013-09-29 01:02:00,
2013-09-28 20:07:00,56.3,54.3,29.93,WSW,256,0.0,1.2,93,0.00,CLR,,0.23,0.0,WeatherDisplay:10.37,2013-09-29 01:07:00,
2013-09-28 20:12:00,56.2,54.2,29.93,West,268,0.0,0.0,93,0.00,CLR,,0.23,0.0,WeatherDisplay:10.37,2013-09-29 01:12:00,
2013-09-28 20:18:00,56.0,54.0,29.93,WSW,254,0.0,0.0,93,0.00,CLR,,0.23,0.0,WeatherDisplay:10.37,2013-09-29 01:18:00,
2013-09-28 20:22:00,55.9,53.9,29.93,WSW,255,0.0,0.0,93,0.00,CLR,,0.23,0.0,WeatherDisplay:10.37,2013-09-29 01:22:00,
2013-09-28 20:28:00,55.9,53.9,29.93,WSW,255,0.0,0.0,93,0.00,CLR,,0.23,0.0,WeatherDisplay:10.37,2013-09-29 01:28:00,
2013-09-28 20:33:00,55.7,53.7,29.93,WSW,255,0.0,0.0,93,0.00,CLR,,0.23,0.0,WeatherDisplay:10.37,2013-09-29 01:33:00,
2013-09-28 20:38:00,55.7,53.7,29.93,WSW,255,0.0,0.0,93,0.00,CLR,,0.23,0.0,WeatherDisplay:10.37,2013-09-29 01:38:00,
2013-09-28 20:43:00,55.6,53.6,29.93,WSW,255,0.0,0.0,93,0.00,CLR,,0.23,0.0,WeatherDisplay:10.37,2013-09-29 01:43:00,
2013-09-28 20:48:00,55.4,53.4,29.93,WSW,254,0.0,0.0,93,0.00,CLR,,0.23,0.0,WeatherDisplay:10.37,2013-09-29 01:48:00,
2013-09-28 20:53:00,55.3,53.3,29.93,WSW,254,0.0,0.0,93,0.00,CLR,,0.23,0.0,WeatherDisplay:10.37,2013-09-29 01:53:00,
2013-09-28 20:58:00,55.1,53.1,29.93,WSW,255,0.0,0.0,93,0.00,CLR,,0.23,0.0,WeatherDisplay:10.37,2013-09-29 01:58:00,
2013-09-28 21:03:00,55.0,53.0,29.93,WSW,255,0.0,0.0,93,0.00,SCT,,0.23,0.0,WeatherDisplay:10.37,2013-09-29 02:03:00,
2013-09-28 21:08:00,54.8,52.8,29.93,WSW,254,0.0,0.0,93,0.00,SCT,,0.23,0.0,WeatherDisplay:10.37,2013-09-29 02:08:00,
2013-09-28 21:13:00,54.7,52.7,29.93,WSW,255,0.0,0.0,93,0.00,SCT,,0.23,0.0,WeatherDisplay:10.37,2013-09-29 02:13:00,
2013-09-28 21:18:00,54.7,52.7,29.95,WSW,255,0.0,0.0,93,0.00,SCT,,0.23,0.0,WeatherDisplay:10.37,2013-09-29 02:18:00,
2013-09-28 21:23:00,54.5,52.5,29.95,WSW,255,0.0,0.0,93,0.00,BKN,,0.23,0.0,WeatherDisplay:10.37,2013-09-29 02:23:00,
2013-09-28 21:28:00,54.4,52.4,29.95,WSW,254,0.0,0.0,93,0.00,BKN,,0.23,0.0,WeatherDisplay:10.37,2013-09-29 02:28:00,
2013-09-28 21:33:00,54.2,52.2,29.95,WSW,255,0.0,0.0,93,0.00,BKN,,0.23,0.0,WeatherDisplay:10.37,2013-09-29 02:33:00,
2013-09-28 21:38:00,54.1,52.1,29.95,WSW,254,0.0,0.0,93,0.00,BKN,,0.23,0.0,WeatherDisplay:10.37,2013-09-29 02:38:00,
2013-09-28 21:43:00,54.1,52.4,29.95,WSW,255,0.0,0.0,94,0.00,BKN,,0.23,0.0,WeatherDisplay:10.37,2013-09-29 02:43:00,
2013-09-28 21:48:00,53.9,52.2,29.95,WSW,254,0.0,0.0,94,0.00,BKN,,0.23,0.0,WeatherDisplay:10.37,2013-09-29 02:48:00,
2013-09-28 21:53:00,53.6,51.9,29.95,WSW,255,0.0,0.0,94,0.00,BKN,,0.23,0.0,WeatherDisplay:10.37,2013-09-29 02:53:00,
2013-09-28 21:58:00,53.5,51.8,29.95,WSW,255,0.0,0.0,94,0.00,BKN,,0.23,0.0,WeatherDisplay:10.37,2013-09-29 02:58:00,
2013-09-28 22:03:00,53.6,51.9,29.96,WSW,255,0.0,0.0,94,0.00,OVC,,0.23,0.0,WeatherDisplay:10.37,2013-09-29 03:03:00,
2013-09-28 22:08:00,53.5,51.8,29.96,WSW,255,0.0,0.0,94,0.00,OVC,,0.23,0.0,WeatherDisplay:10.37,2013-09-29 03:08:00,
2013-09-28 22:13:00,53.3,51.9,29.96,WSW,255,0.0,0.0,95,0.00,OVC,,0.23,0.0,WeatherDisplay:10.37,2013-09-29 03:13:00,
2013-09-28 22:18:00,53.2,51.8,29.96,WSW,255,0.0,0.0,95,0.00,OVC,,0.23,0.0,WeatherDisplay:10.37,2013-09-29 03:18:00,
2013-09-28 22:23:00,53.2,51.8,29.96,WSW,255,0.0,0.0,95,0.00,BKN,,0.23,0.0,WeatherDisplay:10.37,2013-09-29 03:23:00,
2013-09-28 22:28:00,53.2,51.8,29.96,WSW,254,0.0,0.0,95,0.00,BKN,,0.23,0.0,WeatherDisplay:10.37,2013-09-29 03:28:00,
2013-09-28 22:33:00,53.1,51.7,29.97,WSW,255,0.0,0.0,95,0.00,BKN,,0.23,0.0,WeatherDisplay:10.37,2013-09-29 03:33:00,
2013-09-28 22:38:00,53.1,51.7,29.97,WSW,254,0.0,0.0,95,0.00,BKN,,0.23,0.0,WeatherDisplay:10.37,2013-09-29 03:38:00,
2013-09-28 22:43:00,53.1,51.7,29.97,WSW,255,0.0,0.0,95,0.00,OVC,,0.23,0.0,WeatherDisplay:10.37,2013-09-29 03:43:00,
2013-09-28 22:49:00,53.1,52.0,29.97,WSW,255,0.0,0.0,96,0.00,OVC,,0.23,0.0,WeatherDisplay:10.37,2013-09-29 03:49:00,
2013-09-28 22:54:00,52.9,51.8,29.97,South,182,0.0,0.0,96,0.00,OVC,,0.23,0.0,WeatherDisplay:10.37,2013-09-29 03:54:00,
2013-09-28 22:59:00,52.9,51.8,29.97,South,182,0.0,0.0,96,0.00,OVC,,0.23,0.0,WeatherDisplay:10.37,2013-09-29 03:59:00,
2013-09-28 23:01:00,52.9,51.8,29.97,South,182,0.0,0.0,96,0.00,OVC,,0.23,0.0,WeatherDisplay:10.37,2013-09-29 04:01:00,
2013-09-28 23:02:00,52.9,51.8,29.97,South,182,0.0,0.0,96,0.00,OVC,,0.23,0.0,WeatherDisplay:10.37,2013-09-29 04:02:00,
2013-09-28 23:03:00,52.9,51.8,29.97,South,182,0.0,0.0,96,0.00,OVC,,0.23,0.0,WeatherDisplay:10.37,2013-09-29 04:03:00,
2013-09-28 23:08:00,52.9,51.8,29.97,South,182,0.0,0.0,96,0.00,OVC,,0.23,0.0,WeatherDisplay:10.37,2013-09-29 04:08:00,
2013-09-28 23:13:00,52.9,51.8,29.97,South,182,0.0,0.0,96,0.00,OVC,,0.23,0.0,WeatherDisplay:10.37,2013-09-29 04:13:00,
2013-09-28 23:18:00,52.8,51.7,29.97,South,182,0.0,0.0,96,0.00,OVC,,0.23,0.0,WeatherDisplay:10.37,2013-09-29 04:18:00,
2013-09-28 23:23:00,52.8,51.7,29.97,South,182,0.0,0.0,96,0.00,BKN,,0.23,0.0,WeatherDisplay:10.37,2013-09-29 04:23:00,
2013-09-28 23:28:00,52.6,51.5,29.97,South,182,0.0,0.0,96,0.00,BKN,,0.23,0.0,WeatherDisplay:10.37,2013-09-29 04:28:00,
2013-09-28 23:33:00,52.6,51.5,29.97,South,182,0.0,0.0,96,0.00,BKN,,0.23,0.0,WeatherDisplay:10.37,2013-09-29 04:33:00,
2013-09-28 23:38:00,52.6,51.5,29.97,South,182,0.0,1.2,96,0.00,BKN,,0.23,0.0,WeatherDisplay:10.37,2013-09-29 04:38:00,
2013-09-28 23:43:00,52.6,51.5,29.97,South,182,0.0,0.0,96,0.00,BKN,,0.23,0.0,WeatherDisplay:10.37,2013-09-29 04:43:00,
2013-09-28 23:48:00,52.6,51.5,29.98,South,182,0.0,0.0,96,0.00,BKN,,0.23,0.0,WeatherDisplay:10.37,2013-09-29 04:48:00,
2013-09-28 23:53:00,52.5,51.4,29.98,South,182,0.0,0.0,96,0.00,BKN,,0.23,0.0,WeatherDisplay:10.37,2013-09-29 04:53:00,
2013-09-28 23:58:00,52.5,51.4,29.98,South,182,0.0,0.0,96,0.00,BKN,,0.23,0.0,WeatherDisplay:10.37,2013-09-29 04:58:00,